sensor_id;sensor_type;location;lat;lon;timestamp;temperature;humidity
1461;DHT22;724;49.910;12.530;2023-04-25T00:02:07;4.50;99.90
1461;DHT22;724;49.910;12.530;2023-04-25T00:04:35;4.50;99.90
1461;DHT22;724;49.910;12.530;2023-04-25T00:07:03;4.50;99.90
1461;DHT22;724;49.910;12.530;2023-04-25T00:09:31;4.60;99.90
1461;DHT22;724;49.910;12.530;2023-04-25T00:11:58;4.60;99.90
1461;DHT22;724;49.910;12.530;2023-04-25T00:14:24;4.60;99.90
1461;DHT22;724;49.910;12.530;2023-04-25T00:16:53;4.60;99.90
1461;DHT22;724;49.910;12.530;2023-04-25T00:19:20;4.60;99.90
1461;DHT22;724;49.910;12.530;2023-04-25T00:21:48;4.60;99.90
1461;DHT22;724;49.910;12.530;2023-04-25T00:24:15;4.60;99.90
1461;DHT22;724;49.910;12.530;2023-04-25T00:26:42;4.60;99.90
1461;DHT22;724;49.910;12.530;2023-04-25T00:29:08;4.60;99.90
1461;DHT22;724;49.910;12.530;2023-04-25T00:31:35;4.60;99.90
1461;DHT22;724;49.910;12.530;2023-04-25T00:34:02;4.60;99.90
1461;DHT22;724;49.910;12.530;2023-04-25T00:36:29;4.60;99.90
1461;DHT22;724;49.910;12.530;2023-04-25T00:38:57;4.60;99.90
1461;DHT22;724;49.910;12.530;2023-04-25T00:41:25;4.50;99.90
1461;DHT22;724;49.910;12.530;2023-04-25T00:43:52;4.50;99.90
1461;DHT22;724;49.910;12.530;2023-04-25T00:46:20;4.50;99.90
1461;DHT22;724;49.910;12.530;2023-04-25T00:48:46;4.40;99.90
1461;DHT22;724;49.910;12.530;2023-04-25T00:51:16;4.40;99.90
1461;DHT22;724;49.910;12.530;2023-04-25T00:53:44;4.50;99.90
1461;DHT22;724;49.910;12.530;2023-04-25T00:56:12;4.50;99.90
1461;DHT22;724;49.910;12.530;2023-04-25T00:58:40;4.50;99.90
1461;DHT22;724;49.910;12.530;2023-04-25T01:01:08;4.50;99.90
1461;DHT22;724;49.910;12.530;2023-04-25T01:03:37;4.60;99.90
1461;DHT22;724;49.910;12.530;2023-04-25T01:06:06;4.60;99.90
1461;DHT22;724;49.910;12.530;2023-04-25T01:08:34;4.60;99.90
1461;DHT22;724;49.910;12.530;2023-04-25T01:11:01;4.50;99.90
1461;DHT22;724;49.910;12.530;2023-04-25T01:13:29;4.50;99.90
1461;DHT22;724;49.910;12.530;2023-04-25T01:15:57;4.40;99.90
1461;DHT22;724;49.910;12.530;2023-04-25T01:18:24;4.50;99.90
1461;DHT22;724;49.910;12.530;2023-04-25T01:20:52;4.60;99.90
1461;DHT22;724;49.910;12.530;2023-04-25T01:23:21;4.60;99.90
1461;DHT22;724;49.910;12.530;2023-04-25T01:25:48;4.70;99.90
1461;DHT22;724;49.910;12.530;2023-04-25T01:28:16;4.60;99.90
1461;DHT22;724;49.910;12.530;2023-04-25T01:30:43;4.70;99.90
1461;DHT22;724;49.910;12.530;2023-04-25T01:33:10;4.70;99.90
1461;DHT22;724;49.910;12.530;2023-04-25T01:35:37;4.70;99.90
1461;DHT22;724;49.910;12.530;2023-04-25T01:38:04;4.70;99.90
1461;DHT22;724;49.910;12.530;2023-04-25T01:40:33;4.80;99.90
1461;DHT22;724;49.910;12.530;2023-04-25T01:43:01;4.70;19.20
1461;DHT22;724;49.910;12.530;2023-04-25T01:45:28;4.70;1.00
1461;DHT22;724;49.910;12.530;2023-04-25T01:47:55;4.70;1.00
1461;DHT22;724;49.910;12.530;2023-04-25T01:50:25;4.70;22.60
1461;DHT22;724;49.910;12.530;2023-04-25T01:52:51;4.70;19.70
1461;DHT22;724;49.910;12.530;2023-04-25T01:55:19;4.80;42.40
1461;DHT22;724;49.910;12.530;2023-04-25T01:57:47;4.80;63.20
1461;DHT22;724;49.910;12.530;2023-04-25T02:00:14;4.90;14.70
1461;DHT22;724;49.910;12.530;2023-04-25T02:02:41;4.90;1.00
1461;DHT22;724;49.910;12.530;2023-04-25T02:05:08;4.80;1.00
1461;DHT22;724;49.910;12.530;2023-04-25T02:07:34;4.80;1.00
1461;DHT22;724;49.910;12.530;2023-04-25T02:10:01;4.70;1.00
1461;DHT22;724;49.910;12.530;2023-04-25T02:12:28;4.70;1.00
1461;DHT22;724;49.910;12.530;2023-04-25T02:14:57;4.70;37.70
1461;DHT22;724;49.910;12.530;2023-04-25T02:17:24;4.70;99.90
1461;DHT22;724;49.910;12.530;2023-04-25T02:19:51;4.70;99.90
1461;DHT22;724;49.910;12.530;2023-04-25T02:22:18;4.70;99.90
1461;DHT22;724;49.910;12.530;2023-04-25T02:24:45;4.80;99.90
1461;DHT22;724;49.910;12.530;2023-04-25T02:27:12;4.80;99.90
1461;DHT22;724;49.910;12.530;2023-04-25T02:29:39;4.70;99.90
1461;DHT22;724;49.910;12.530;2023-04-25T02:32:07;4.70;99.90
1461;DHT22;724;49.910;12.530;2023-04-25T02:34:33;4.70;99.90
1461;DHT22;724;49.910;12.530;2023-04-25T02:37:00;4.80;99.90
1461;DHT22;724;49.910;12.530;2023-04-25T02:39:27;4.80;99.90
1461;DHT22;724;49.910;12.530;2023-04-25T02:41:54;4.90;99.90
1461;DHT22;724;49.910;12.530;2023-04-25T02:44:21;4.80;99.90
1461;DHT22;724;49.910;12.530;2023-04-25T02:46:47;4.80;99.90
1461;DHT22;724;49.910;12.530;2023-04-25T02:49:15;4.80;99.90
1461;DHT22;724;49.910;12.530;2023-04-25T02:51:42;4.80;99.90
1461;DHT22;724;49.910;12.530;2023-04-25T02:54:09;4.80;99.90
1461;DHT22;724;49.910;12.530;2023-04-25T02:56:36;4.80;99.90
1461;DHT22;724;49.910;12.530;2023-04-25T02:59:02;4.80;99.90
1461;DHT22;724;49.910;12.530;2023-04-25T03:01:29;4.80;99.90
1461;DHT22;724;49.910;12.530;2023-04-25T03:03:56;4.80;99.90
1461;DHT22;724;49.910;12.530;2023-04-25T03:06:24;4.80;99.90
1461;DHT22;724;49.910;12.530;2023-04-25T03:08:50;4.90;99.90
1461;DHT22;724;49.910;12.530;2023-04-25T03:11:17;4.80;99.90
1461;DHT22;724;49.910;12.530;2023-04-25T03:13:45;4.90;99.90
1461;DHT22;724;49.910;12.530;2023-04-25T03:16:12;4.90;99.90
1461;DHT22;724;49.910;12.530;2023-04-25T03:18:39;4.80;99.90
1461;DHT22;724;49.910;12.530;2023-04-25T03:21:05;4.90;99.90
1461;DHT22;724;49.910;12.530;2023-04-25T03:23:34;4.80;99.90
1461;DHT22;724;49.910;12.530;2023-04-25T03:26:00;4.80;99.90
1461;DHT22;724;49.910;12.530;2023-04-25T03:28:27;4.80;99.90
1461;DHT22;724;49.910;12.530;2023-04-25T03:30:54;4.80;99.90
1461;DHT22;724;49.910;12.530;2023-04-25T03:33:21;4.70;99.90
1461;DHT22;724;49.910;12.530;2023-04-25T03:35:48;4.70;99.90
1461;DHT22;724;49.910;12.530;2023-04-25T03:38:15;4.60;99.90
1461;DHT22;724;49.910;12.530;2023-04-25T03:40:43;4.60;99.90
1461;DHT22;724;49.910;12.530;2023-04-25T03:43:10;4.70;99.90
1461;DHT22;724;49.910;12.530;2023-04-25T03:45:36;4.70;99.90
1461;DHT22;724;49.910;12.530;2023-04-25T03:48:04;4.70;99.90
1461;DHT22;724;49.910;12.530;2023-04-25T03:50:30;4.70;99.90
1461;DHT22;724;49.910;12.530;2023-04-25T03:52:57;4.70;99.90
1461;DHT22;724;49.910;12.530;2023-04-25T03:55:24;4.80;99.90
1461;DHT22;724;49.910;12.530;2023-04-25T03:57:52;4.70;99.90
1461;DHT22;724;49.910;12.530;2023-04-25T04:00:19;4.80;99.90
1461;DHT22;724;49.910;12.530;2023-04-25T04:02:46;4.80;99.90
1461;DHT22;724;49.910;12.530;2023-04-25T04:05:12;4.80;99.90
1461;DHT22;724;49.910;12.530;2023-04-25T04:07:39;4.80;99.90
1461;DHT22;724;49.910;12.530;2023-04-25T04:10:08;4.80;99.90
1461;DHT22;724;49.910;12.530;2023-04-25T04:12:35;4.80;99.90
1461;DHT22;724;49.910;12.530;2023-04-25T04:15:04;4.80;99.90
1461;DHT22;724;49.910;12.530;2023-04-25T04:17:32;4.80;99.90
1461;DHT22;724;49.910;12.530;2023-04-25T04:20:00;4.80;99.90
1461;DHT22;724;49.910;12.530;2023-04-25T04:22:29;4.80;99.90
1461;DHT22;724;49.910;12.530;2023-04-25T04:24:56;4.90;99.90
1461;DHT22;724;49.910;12.530;2023-04-25T04:27:23;4.90;99.90
1461;DHT22;724;49.910;12.530;2023-04-25T04:29:50;4.90;99.90
1461;DHT22;724;49.910;12.530;2023-04-25T04:32:19;4.90;99.90
1461;DHT22;724;49.910;12.530;2023-04-25T04:34:45;5.00;99.90
1461;DHT22;724;49.910;12.530;2023-04-25T04:37:14;5.10;99.90
1461;DHT22;724;49.910;12.530;2023-04-25T04:39:41;5.00;99.90
1461;DHT22;724;49.910;12.530;2023-04-25T04:42:08;5.10;99.90
1461;DHT22;724;49.910;12.530;2023-04-25T04:44:36;5.10;99.90
1461;DHT22;724;49.910;12.530;2023-04-25T04:47:04;5.00;99.90
1461;DHT22;724;49.910;12.530;2023-04-25T04:49:33;5.00;99.90
1461;DHT22;724;49.910;12.530;2023-04-25T04:52:00;4.90;99.90
1461;DHT22;724;49.910;12.530;2023-04-25T04:54:27;4.90;99.90
1461;DHT22;724;49.910;12.530;2023-04-25T04:56:54;5.00;99.90
1461;DHT22;724;49.910;12.530;2023-04-25T04:59:20;5.00;99.90
1461;DHT22;724;49.910;12.530;2023-04-25T05:01:47;5.00;99.90
1461;DHT22;724;49.910;12.530;2023-04-25T05:04:14;5.00;99.90
1461;DHT22;724;49.910;12.530;2023-04-25T05:06:42;5.10;99.90
1461;DHT22;724;49.910;12.530;2023-04-25T05:09:09;5.10;99.90
1461;DHT22;724;49.910;12.530;2023-04-25T05:11:36;5.10;99.90
1461;DHT22;724;49.910;12.530;2023-04-25T05:14:03;5.00;99.90
1461;DHT22;724;49.910;12.530;2023-04-25T05:16:29;5.00;99.90
1461;DHT22;724;49.910;12.530;2023-04-25T05:18:56;5.00;99.90
1461;DHT22;724;49.910;12.530;2023-04-25T05:21:23;5.00;99.90
1461;DHT22;724;49.910;12.530;2023-04-25T05:23:52;5.00;99.90
1461;DHT22;724;49.910;12.530;2023-04-25T05:26:18;5.00;99.90
1461;DHT22;724;49.910;12.530;2023-04-25T05:28:46;5.10;99.90
1461;DHT22;724;49.910;12.530;2023-04-25T05:31:12;5.10;99.90
1461;DHT22;724;49.910;12.530;2023-04-25T05:33:39;5.10;99.90
1461;DHT22;724;49.910;12.530;2023-04-25T05:36:07;5.10;99.90
1461;DHT22;724;49.910;12.530;2023-04-25T05:38:34;5.10;99.90
1461;DHT22;724;49.910;12.530;2023-04-25T05:41:02;5.10;99.90
1461;DHT22;724;49.910;12.530;2023-04-25T05:43:29;5.20;99.90
1461;DHT22;724;49.910;12.530;2023-04-25T05:45:55;5.30;99.90
1461;DHT22;724;49.910;12.530;2023-04-25T05:48:22;5.50;1.00
1461;DHT22;724;49.910;12.530;2023-04-25T05:50:49;5.90;1.00
1461;DHT22;724;49.910;12.530;2023-04-25T05:53:16;5.90;99.90
1461;DHT22;724;49.910;12.530;2023-04-25T05:55:43;5.80;1.00
1461;DHT22;724;49.910;12.530;2023-04-25T05:58:11;5.80;1.00
1461;DHT22;724;49.910;12.530;2023-04-25T06:00:38;5.60;1.00
1461;DHT22;724;49.910;12.530;2023-04-25T06:03:07;5.60;1.00
1461;DHT22;724;49.910;12.530;2023-04-25T06:05:35;5.50;1.00
1461;DHT22;724;49.910;12.530;2023-04-25T06:08:01;5.50;1.00
1461;DHT22;724;49.910;12.530;2023-04-25T06:10:28;5.50;1.00
1461;DHT22;724;49.910;12.530;2023-04-25T06:12:55;5.50;1.00
1461;DHT22;724;49.910;12.530;2023-04-25T06:15:23;5.50;1.00
1461;DHT22;724;49.910;12.530;2023-04-25T06:17:50;5.50;1.00
1461;DHT22;724;49.910;12.530;2023-04-25T06:20:17;5.60;1.00
1461;DHT22;724;49.910;12.530;2023-04-25T06:22:45;5.50;1.00
1461;DHT22;724;49.910;12.530;2023-04-25T06:25:11;5.80;1.00
1461;DHT22;724;49.910;12.530;2023-04-25T06:27:38;5.70;1.00
1461;DHT22;724;49.910;12.530;2023-04-25T06:30:06;5.90;1.00
1461;DHT22;724;49.910;12.530;2023-04-25T06:32:34;5.80;1.00
1461;DHT22;724;49.910;12.530;2023-04-25T06:35:01;6.00;99.90
1461;DHT22;724;49.910;12.530;2023-04-25T06:37:29;6.10;99.90
1461;DHT22;724;49.910;12.530;2023-04-25T06:39:55;6.20;1.00
1461;DHT22;724;49.910;12.530;2023-04-25T06:42:22;6.30;1.00
1461;DHT22;724;49.910;12.530;2023-04-25T06:44:49;6.20;1.00
1461;DHT22;724;49.910;12.530;2023-04-25T06:47:15;6.10;1.00
1461;DHT22;724;49.910;12.530;2023-04-25T06:49:44;6.10;1.00
1461;DHT22;724;49.910;12.530;2023-04-25T06:52:10;5.80;1.00
1461;DHT22;724;49.910;12.530;2023-04-25T06:54:37;5.90;1.00
1461;DHT22;724;49.910;12.530;2023-04-25T06:57:04;5.70;1.00
1461;DHT22;724;49.910;12.530;2023-04-25T06:59:31;5.70;99.90
1461;DHT22;724;49.910;12.530;2023-04-25T07:01:58;5.50;1.00
1461;DHT22;724;49.910;12.530;2023-04-25T07:04:25;5.60;1.00
1461;DHT22;724;49.910;12.530;2023-04-25T07:06:53;5.50;1.00
1461;DHT22;724;49.910;12.530;2023-04-25T07:09:20;5.30;99.90
1461;DHT22;724;49.910;12.530;2023-04-25T07:11:47;5.10;99.90
1461;DHT22;724;49.910;12.530;2023-04-25T07:14:13;5.30;1.00
1461;DHT22;724;49.910;12.530;2023-04-25T07:16:40;5.30;1.00
1461;DHT22;724;49.910;12.530;2023-04-25T07:19:07;5.00;1.00
1461;DHT22;724;49.910;12.530;2023-04-25T07:21:35;4.90;1.00
1461;DHT22;724;49.910;12.530;2023-04-25T07:24:04;4.80;99.90
1461;DHT22;724;49.910;12.530;2023-04-25T07:26:31;4.80;99.90
1461;DHT22;724;49.910;12.530;2023-04-25T07:28:57;5.00;1.00
1461;DHT22;724;49.910;12.530;2023-04-25T07:31:25;5.10;1.00
1461;DHT22;724;49.910;12.530;2023-04-25T07:33:52;5.10;1.00
1461;DHT22;724;49.910;12.530;2023-04-25T07:36:18;5.30;1.00
1461;DHT22;724;49.910;12.530;2023-04-25T07:38:46;5.40;1.00
1461;DHT22;724;49.910;12.530;2023-04-25T07:41:14;5.60;1.00
1461;DHT22;724;49.910;12.530;2023-04-25T07:43:41;6.00;99.90
1461;DHT22;724;49.910;12.530;2023-04-25T07:46:07;6.00;1.00
1461;DHT22;724;49.910;12.530;2023-04-25T07:48:34;6.30;1.00
1461;DHT22;724;49.910;12.530;2023-04-25T07:51:01;7.20;99.90
1461;DHT22;724;49.910;12.530;2023-04-25T07:53:30;7.20;1.00
1461;DHT22;724;49.910;12.530;2023-04-25T07:55:57;7.00;1.00
1461;DHT22;724;49.910;12.530;2023-04-25T07:58:25;7.00;1.00
1461;DHT22;724;49.910;12.530;2023-04-25T08:00:52;7.30;1.00
1461;DHT22;724;49.910;12.530;2023-04-25T08:03:19;7.20;1.00
1461;DHT22;724;49.910;12.530;2023-04-25T08:05:46;7.10;1.00
1461;DHT22;724;49.910;12.530;2023-04-25T08:08:13;7.50;1.00
1461;DHT22;724;49.910;12.530;2023-04-25T08:10:40;7.50;1.00
1461;DHT22;724;49.910;12.530;2023-04-25T08:13:07;7.10;1.00
1461;DHT22;724;49.910;12.530;2023-04-25T08:15:35;7.50;1.00
1461;DHT22;724;49.910;12.530;2023-04-25T08:18:02;7.80;1.00
1461;DHT22;724;49.910;12.530;2023-04-25T08:20:29;7.20;1.00
1461;DHT22;724;49.910;12.530;2023-04-25T08:22:55;7.10;1.00
1461;DHT22;724;49.910;12.530;2023-04-25T08:25:22;7.10;1.00
1461;DHT22;724;49.910;12.530;2023-04-25T08:27:49;7.20;1.00
1461;DHT22;724;49.910;12.530;2023-04-25T08:30:16;8.10;1.00
1461;DHT22;724;49.910;12.530;2023-04-25T08:32:44;9.10;99.90
1461;DHT22;724;49.910;12.530;2023-04-25T08:35:10;9.80;99.90
1461;DHT22;724;49.910;12.530;2023-04-25T08:37:37;10.40;30.00
1461;DHT22;724;49.910;12.530;2023-04-25T08:40:05;10.00;1.00
1461;DHT22;724;49.910;12.530;2023-04-25T08:42:35;9.30;1.00
1461;DHT22;724;49.910;12.530;2023-04-25T08:45:04;9.30;1.00
1461;DHT22;724;49.910;12.530;2023-04-25T08:47:33;9.20;1.00
1461;DHT22;724;49.910;12.530;2023-04-25T08:50:02;9.30;1.00
1461;DHT22;724;49.910;12.530;2023-04-25T08:52:35;8.70;1.00
1461;DHT22;724;49.910;12.530;2023-04-25T08:55:03;8.40;1.00
1461;DHT22;724;49.910;12.530;2023-04-25T08:57:31;8.00;1.00
1461;DHT22;724;49.910;12.530;2023-04-25T09:00:01;7.90;1.00
1461;DHT22;724;49.910;12.530;2023-04-25T09:02:29;7.80;1.00
1461;DHT22;724;49.910;12.530;2023-04-25T09:04:57;7.40;1.00
1461;DHT22;724;49.910;12.530;2023-04-25T09:07:25;7.60;1.00
1461;DHT22;724;49.910;12.530;2023-04-25T09:09:52;7.60;1.00
1461;DHT22;724;49.910;12.530;2023-04-25T09:12:19;7.60;1.00
1461;DHT22;724;49.910;12.530;2023-04-25T09:15:02;7.60;1.00
1461;DHT22;724;49.910;12.530;2023-04-25T09:17:30;8.50;1.00
1461;DHT22;724;49.910;12.530;2023-04-25T09:20:06;8.50;1.00
1461;DHT22;724;49.910;12.530;2023-04-25T09:22:36;8.80;1.00
1461;DHT22;724;49.910;12.530;2023-04-25T09:25:07;9.30;1.00
1461;DHT22;724;49.910;12.530;2023-04-25T09:27:34;8.60;1.00
1461;DHT22;724;49.910;12.530;2023-04-25T09:30:01;8.40;1.00
1461;DHT22;724;49.910;12.530;2023-04-25T09:32:29;8.10;1.00
1461;DHT22;724;49.910;12.530;2023-04-25T09:34:56;7.40;1.00
1461;DHT22;724;49.910;12.530;2023-04-25T09:37:24;7.60;1.00
1461;DHT22;724;49.910;12.530;2023-04-25T09:39:54;7.70;1.00
1461;DHT22;724;49.910;12.530;2023-04-25T09:42:22;7.00;1.00
1461;DHT22;724;49.910;12.530;2023-04-25T09:44:52;7.00;1.00
1461;DHT22;724;49.910;12.530;2023-04-25T09:47:21;7.10;1.00
1461;DHT22;724;49.910;12.530;2023-04-25T09:49:49;7.30;1.00
1461;DHT22;724;49.910;12.530;2023-04-25T09:52:17;7.40;1.00
1461;DHT22;724;49.910;12.530;2023-04-25T09:54:45;7.50;1.00
1461;DHT22;724;49.910;12.530;2023-04-25T09:57:15;7.30;1.00
1461;DHT22;724;49.910;12.530;2023-04-25T09:59:43;7.50;1.00
1461;DHT22;724;49.910;12.530;2023-04-25T10:02:12;7.90;1.00
1461;DHT22;724;49.910;12.530;2023-04-25T10:04:39;8.00;1.00
1461;DHT22;724;49.910;12.530;2023-04-25T10:07:08;8.40;1.00
1461;DHT22;724;49.910;12.530;2023-04-25T10:09:37;8.40;1.00
1461;DHT22;724;49.910;12.530;2023-04-25T10:12:06;8.30;1.00
1461;DHT22;724;49.910;12.530;2023-04-25T10:14:35;10.50;1.00
1461;DHT22;724;49.910;12.530;2023-04-25T10:17:02;11.50;1.00
1461;DHT22;724;49.910;12.530;2023-04-25T10:19:29;11.90;1.00
1461;DHT22;724;49.910;12.530;2023-04-25T10:22:05;11.90;1.00
1461;DHT22;724;49.910;12.530;2023-04-25T10:24:34;13.20;1.00
1461;DHT22;724;49.910;12.530;2023-04-25T10:27:02;12.50;1.00
1461;DHT22;724;49.910;12.530;2023-04-25T10:29:29;11.70;99.90
1461;DHT22;724;49.910;12.530;2023-04-25T10:31:57;12.10;99.90
1461;DHT22;724;49.910;12.530;2023-04-25T10:34:36;11.90;99.90
1461;DHT22;724;49.910;12.530;2023-04-25T10:37:05;11.00;99.90
1461;DHT22;724;49.910;12.530;2023-04-25T10:39:32;11.10;99.90
1461;DHT22;724;49.910;12.530;2023-04-25T10:42:01;10.90;99.90
1461;DHT22;724;49.910;12.530;2023-04-25T10:44:29;11.00;99.90
1461;DHT22;724;49.910;12.530;2023-04-25T10:46:58;11.10;99.90
1461;DHT22;724;49.910;12.530;2023-04-25T10:49:31;12.00;99.90
1461;DHT22;724;49.910;12.530;2023-04-25T10:52:15;11.70;99.90
1461;DHT22;724;49.910;12.530;2023-04-25T10:54:43;11.40;99.90
1461;DHT22;724;49.910;12.530;2023-04-25T10:57:29;11.50;99.90
1461;DHT22;724;49.910;12.530;2023-04-25T11:00:02;10.60;99.90
1461;DHT22;724;49.910;12.530;2023-04-25T11:02:37;10.90;99.90
1461;DHT22;724;49.910;12.530;2023-04-25T11:05:05;11.00;99.90
1461;DHT22;724;49.910;12.530;2023-04-25T11:07:37;10.90;99.90
1461;DHT22;724;49.910;12.530;2023-04-25T11:10:05;10.90;99.90
1461;DHT22;724;49.910;12.530;2023-04-25T11:12:32;10.50;99.90
1461;DHT22;724;49.910;12.530;2023-04-25T11:15:00;10.60;99.90
1461;DHT22;724;49.910;12.530;2023-04-25T11:17:28;9.90;99.90
1461;DHT22;724;49.910;12.530;2023-04-25T11:19:56;9.60;99.90
1461;DHT22;724;49.910;12.530;2023-04-25T11:22:23;9.70;99.90
1461;DHT22;724;49.910;12.530;2023-04-25T11:24:50;9.20;99.90
1461;DHT22;724;49.910;12.530;2023-04-25T11:27:17;9.30;99.90
1461;DHT22;724;49.910;12.530;2023-04-25T11:29:44;9.10;99.90
1461;DHT22;724;49.910;12.530;2023-04-25T11:32:15;8.80;99.90
1461;DHT22;724;49.910;12.530;2023-04-25T11:34:43;9.00;1.00
1461;DHT22;724;49.910;12.530;2023-04-25T11:37:12;8.90;1.00
1461;DHT22;724;49.910;12.530;2023-04-25T11:39:43;9.50;1.00
1461;DHT22;724;49.910;12.530;2023-04-25T11:42:11;10.60;1.00
1461;DHT22;724;49.910;12.530;2023-04-25T11:44:38;11.00;1.00
1461;DHT22;724;49.910;12.530;2023-04-25T11:47:05;10.90;99.90
1461;DHT22;724;49.910;12.530;2023-04-25T11:49:32;10.80;99.90
1461;DHT22;724;49.910;12.530;2023-04-25T11:52:00;10.80;99.90
1461;DHT22;724;49.910;12.530;2023-04-25T11:54:28;11.10;99.90
1461;DHT22;724;49.910;12.530;2023-04-25T11:56:55;11.20;99.90
1461;DHT22;724;49.910;12.530;2023-04-25T11:59:24;11.60;99.90
1461;DHT22;724;49.910;12.530;2023-04-25T12:01:51;11.40;99.90
1461;DHT22;724;49.910;12.530;2023-04-25T12:04:19;11.30;99.90
1461;DHT22;724;49.910;12.530;2023-04-25T12:06:48;11.70;99.90
1461;DHT22;724;49.910;12.530;2023-04-25T12:09:17;12.20;99.90
1461;DHT22;724;49.910;12.530;2023-04-25T12:11:46;12.30;99.90
1461;DHT22;724;49.910;12.530;2023-04-25T12:14:21;12.20;99.90
1461;DHT22;724;49.910;12.530;2023-04-25T12:16:49;11.90;99.90
1461;DHT22;724;49.910;12.530;2023-04-25T12:19:17;11.30;99.90
1461;DHT22;724;49.910;12.530;2023-04-25T12:21:44;11.80;99.90
1461;DHT22;724;49.910;12.530;2023-04-25T12:24:13;11.40;99.90
1461;DHT22;724;49.910;12.530;2023-04-25T12:26:51;11.00;99.90
1461;DHT22;724;49.910;12.530;2023-04-25T12:29:20;10.80;99.90
1461;DHT22;724;49.910;12.530;2023-04-25T12:31:48;10.50;99.90
1461;DHT22;724;49.910;12.530;2023-04-25T12:34:14;11.00;99.90
1461;DHT22;724;49.910;12.530;2023-04-25T12:36:41;10.60;99.90
1461;DHT22;724;49.910;12.530;2023-04-25T12:39:08;10.50;99.90
1461;DHT22;724;49.910;12.530;2023-04-25T12:41:40;10.40;99.90
1461;DHT22;724;49.910;12.530;2023-04-25T12:44:09;10.20;99.90
1461;DHT22;724;49.910;12.530;2023-04-25T12:46:36;10.60;99.90
1461;DHT22;724;49.910;12.530;2023-04-25T12:49:03;10.90;99.90
1461;DHT22;724;49.910;12.530;2023-04-25T12:51:31;11.70;99.90
1461;DHT22;724;49.910;12.530;2023-04-25T12:53:58;12.30;99.90
1461;DHT22;724;49.910;12.530;2023-04-25T12:56:25;12.50;99.90
1461;DHT22;724;49.910;12.530;2023-04-25T12:58:52;11.80;99.90
1461;DHT22;724;49.910;12.530;2023-04-25T13:01:21;11.30;99.90
1461;DHT22;724;49.910;12.530;2023-04-25T13:03:48;10.30;99.90
1461;DHT22;724;49.910;12.530;2023-04-25T13:06:15;10.00;99.90
1461;DHT22;724;49.910;12.530;2023-04-25T13:08:42;9.90;99.90
1461;DHT22;724;49.910;12.530;2023-04-25T13:11:09;10.30;99.90
1461;DHT22;724;49.910;12.530;2023-04-25T13:13:37;10.50;99.90
1461;DHT22;724;49.910;12.530;2023-04-25T13:16:05;10.40;99.90
1461;DHT22;724;49.910;12.530;2023-04-25T13:18:34;9.90;99.90
1461;DHT22;724;49.910;12.530;2023-04-25T13:21:01;10.30;99.90
1461;DHT22;724;49.910;12.530;2023-04-25T13:23:29;10.20;99.90
1461;DHT22;724;49.910;12.530;2023-04-25T13:25:56;10.40;99.90
1461;DHT22;724;49.910;12.530;2023-04-25T13:28:24;10.40;99.90
1461;DHT22;724;49.910;12.530;2023-04-25T13:30:50;10.50;99.90
1461;DHT22;724;49.910;12.530;2023-04-25T13:33:17;10.50;99.90
1461;DHT22;724;49.910;12.530;2023-04-25T13:35:46;9.90;99.90
1461;DHT22;724;49.910;12.530;2023-04-25T13:38:19;10.30;99.90
1461;DHT22;724;49.910;12.530;2023-04-25T13:40:46;10.60;99.90
1461;DHT22;724;49.910;12.530;2023-04-25T13:43:13;10.70;99.90
1461;DHT22;724;49.910;12.530;2023-04-25T13:45:41;10.90;99.90
1461;DHT22;724;49.910;12.530;2023-04-25T13:48:07;10.20;99.90
1461;DHT22;724;49.910;12.530;2023-04-25T13:50:34;10.50;99.90
1461;DHT22;724;49.910;12.530;2023-04-25T13:53:02;10.30;99.90
1461;DHT22;724;49.910;12.530;2023-04-25T13:55:29;11.10;99.90
1461;DHT22;724;49.910;12.530;2023-04-25T13:57:56;11.20;99.90
1461;DHT22;724;49.910;12.530;2023-04-25T14:00:23;11.00;99.90
1461;DHT22;724;49.910;12.530;2023-04-25T14:02:50;10.90;99.90
1461;DHT22;724;49.910;12.530;2023-04-25T14:05:17;10.10;99.90
1461;DHT22;724;49.910;12.530;2023-04-25T14:07:44;9.90;99.90
1461;DHT22;724;49.910;12.530;2023-04-25T14:10:12;9.60;99.90
1461;DHT22;724;49.910;12.530;2023-04-25T14:12:38;9.20;99.90
1461;DHT22;724;49.910;12.530;2023-04-25T14:15:06;8.90;99.90
1461;DHT22;724;49.910;12.530;2023-04-25T14:17:33;8.60;99.90
1461;DHT22;724;49.910;12.530;2023-04-25T14:20:00;8.30;99.90
1461;DHT22;724;49.910;12.530;2023-04-25T14:22:26;7.50;99.90
1461;DHT22;724;49.910;12.530;2023-04-25T14:24:53;7.40;99.90
1461;DHT22;724;49.910;12.530;2023-04-25T14:27:21;6.90;1.00
1461;DHT22;724;49.910;12.530;2023-04-25T14:29:48;6.90;1.00
1461;DHT22;724;49.910;12.530;2023-04-25T14:32:15;6.80;1.00
1461;DHT22;724;49.910;12.530;2023-04-25T14:34:41;6.90;1.00
1461;DHT22;724;49.910;12.530;2023-04-25T14:37:08;7.00;1.00
1461;DHT22;724;49.910;12.530;2023-04-25T14:39:35;7.10;1.00
1461;DHT22;724;49.910;12.530;2023-04-25T14:42:02;7.30;1.00
1461;DHT22;724;49.910;12.530;2023-04-25T14:44:30;7.80;1.00
1461;DHT22;724;49.910;12.530;2023-04-25T14:46:57;8.10;1.00
1461;DHT22;724;49.910;12.530;2023-04-25T14:49:24;8.60;1.00
1461;DHT22;724;49.910;12.530;2023-04-25T14:51:50;8.80;1.00
1461;DHT22;724;49.910;12.530;2023-04-25T14:54:17;8.80;1.00
1461;DHT22;724;49.910;12.530;2023-04-25T14:56:44;9.00;1.00
1461;DHT22;724;49.910;12.530;2023-04-25T14:59:11;8.50;1.00
1461;DHT22;724;49.910;12.530;2023-04-25T15:01:39;7.70;1.00
1461;DHT22;724;49.910;12.530;2023-04-25T15:04:06;7.50;1.00
1461;DHT22;724;49.910;12.530;2023-04-25T15:06:33;7.50;1.00
1461;DHT22;724;49.910;12.530;2023-04-25T15:09:00;7.20;1.00
1461;DHT22;724;49.910;12.530;2023-04-25T15:11:27;7.20;1.00
1461;DHT22;724;49.910;12.530;2023-04-25T15:13:54;7.30;1.00
1461;DHT22;724;49.910;12.530;2023-04-25T15:16:20;7.30;1.00
1461;DHT22;724;49.910;12.530;2023-04-25T15:18:49;7.30;1.00
1461;DHT22;724;49.910;12.530;2023-04-25T15:21:15;7.30;1.00
1461;DHT22;724;49.910;12.530;2023-04-25T15:23:42;7.60;1.00
1461;DHT22;724;49.910;12.530;2023-04-25T15:26:09;7.70;1.00
1461;DHT22;724;49.910;12.530;2023-04-25T15:28:36;7.70;1.00
1461;DHT22;724;49.910;12.530;2023-04-25T15:31:03;7.70;1.00
1461;DHT22;724;49.910;12.530;2023-04-25T15:33:30;7.50;1.00
1461;DHT22;724;49.910;12.530;2023-04-25T15:35:59;7.70;1.00
1461;DHT22;724;49.910;12.530;2023-04-25T15:38:25;8.00;1.00
1461;DHT22;724;49.910;12.530;2023-04-25T15:40:52;8.10;1.00
1461;DHT22;724;49.910;12.530;2023-04-25T15:43:19;8.20;1.00
1461;DHT22;724;49.910;12.530;2023-04-25T15:45:46;8.40;1.00
1461;DHT22;724;49.910;12.530;2023-04-25T15:48:12;8.60;1.00
1461;DHT22;724;49.910;12.530;2023-04-25T15:50:40;8.30;1.00
1461;DHT22;724;49.910;12.530;2023-04-25T15:53:09;8.10;1.00
1461;DHT22;724;49.910;12.530;2023-04-25T15:55:35;7.80;1.00
1461;DHT22;724;49.910;12.530;2023-04-25T15:58:02;7.70;1.00
1461;DHT22;724;49.910;12.530;2023-04-25T16:00:29;7.50;1.00
1461;DHT22;724;49.910;12.530;2023-04-25T16:02:59;7.40;1.00
1461;DHT22;724;49.910;12.530;2023-04-25T16:05:27;7.30;1.00
1461;DHT22;724;49.910;12.530;2023-04-25T16:07:54;6.60;1.00
1461;DHT22;724;49.910;12.530;2023-04-25T16:10:22;6.10;1.00
1461;DHT22;724;49.910;12.530;2023-04-25T16:12:49;6.00;1.00
1461;DHT22;724;49.910;12.530;2023-04-25T16:15:16;5.50;1.00
1461;DHT22;724;49.910;12.530;2023-04-25T16:17:43;5.70;1.00
1461;DHT22;724;49.910;12.530;2023-04-25T16:20:11;5.60;1.00
1461;DHT22;724;49.910;12.530;2023-04-25T16:22:40;5.60;1.00
1461;DHT22;724;49.910;12.530;2023-04-25T16:25:08;5.70;1.00